sensor_id;sensor_type;location;lat;lon;timestamp;P1;durP1;ratioP1;P2;durP2;ratioP2
22606;SDS011;11470;20.968;105.834;2023-06-22T00:03:23;40.45;;;26.75;;
22606;SDS011;11470;20.968;105.834;2023-06-22T00:08:29;39.53;;;26.38;;
22606;SDS011;11470;20.968;105.834;2023-06-22T00:13:35;35.95;;;24.92;;
22606;SDS011;11470;20.968;105.834;2023-06-22T00:18:41;38.58;;;25.83;;
22606;SDS011;11470;20.968;105.834;2023-06-22T00:23:51;38.80;;;26.55;;
22606;SDS011;11470;20.968;105.834;2023-06-22T00:28:57;38.60;;;26.20;;
22606;SDS011;11470;20.968;105.834;2023-06-22T00:34:05;41.10;;;27.35;;
22606;SDS011;11470;20.968;105.834;2023-06-22T00:39:13;41.83;;;27.50;;
22606;SDS011;11470;20.968;105.834;2023-06-22T00:44:19;32.08;;;22.58;;
22606;SDS011;11470;20.968;105.834;2023-06-22T00:49:25;38.47;;;24.80;;
22606;SDS011;11470;20.968;105.834;2023-06-22T00:54:31;36.15;;;25.50;;
22606;SDS011;11470;20.968;105.834;2023-06-22T00:59:38;33.13;;;21.58;;
22606;SDS011;11470;20.968;105.834;2023-06-22T01:04:45;32.20;;;24.15;;
22606;SDS011;11470;20.968;105.834;2023-06-22T01:15:08;31.05;;;21.65;;
22606;SDS011;11470;20.968;105.834;2023-06-22T01:20:18;38.65;;;26.23;;
22606;SDS011;11470;20.968;105.834;2023-06-22T01:25:28;37.50;;;25.77;;
22606;SDS011;11470;20.968;105.834;2023-06-22T01:30:41;32.88;;;22.10;;
22606;SDS011;11470;20.968;105.834;2023-06-22T01:35:50;34.50;;;24.80;;
22606;SDS011;11470;20.968;105.834;2023-06-22T01:40:57;36.55;;;22.92;;
22606;SDS011;11470;20.968;105.834;2023-06-22T01:46:04;30.80;;;19.58;;
22606;SDS011;11470;20.968;105.834;2023-06-22T01:51:10;25.00;;;17.10;;
22606;SDS011;11470;20.968;105.834;2023-06-22T01:56:16;23.23;;;15.65;;
22606;SDS011;11470;20.968;105.834;2023-06-22T02:01:27;26.88;;;17.02;;
22606;SDS011;11470;20.968;105.834;2023-06-22T02:06:42;26.45;;;16.98;;
22606;SDS011;11470;20.968;105.834;2023-06-22T02:11:50;26.25;;;17.05;;
22606;SDS011;11470;20.968;105.834;2023-06-22T02:17:00;21.63;;;14.77;;
22606;SDS011;11470;20.968;105.834;2023-06-22T02:22:05;26.85;;;15.70;;
22606;SDS011;11470;20.968;105.834;2023-06-22T02:27:11;25.60;;;16.00;;
22606;SDS011;11470;20.968;105.834;2023-06-22T02:32:16;21.15;;;14.80;;
22606;SDS011;11470;20.968;105.834;2023-06-22T02:37:21;22.87;;;15.53;;
22606;SDS011;11470;20.968;105.834;2023-06-22T02:42:28;22.88;;;13.55;;
22606;SDS011;11470;20.968;105.834;2023-06-22T02:47:33;26.13;;;15.43;;
22606;SDS011;11470;20.968;105.834;2023-06-22T02:52:39;18.30;;;14.15;;
22606;SDS011;11470;20.968;105.834;2023-06-22T02:57:44;19.85;;;12.15;;
22606;SDS011;11470;20.968;105.834;2023-06-22T03:02:51;30.30;;;16.30;;
22606;SDS011;11470;20.968;105.834;2023-06-22T03:13:04;24.95;;;15.63;;
22606;SDS011;11470;20.968;105.834;2023-06-22T03:18:09;23.10;;;14.13;;
22606;SDS011;11470;20.968;105.834;2023-06-22T03:23:14;22.27;;;13.98;;
22606;SDS011;11470;20.968;105.834;2023-06-22T03:28:19;20.73;;;13.38;;
22606;SDS011;11470;20.968;105.834;2023-06-22T03:33:25;19.10;;;13.20;;
22606;SDS011;11470;20.968;105.834;2023-06-22T03:38:32;23.10;;;12.20;;
22606;SDS011;11470;20.968;105.834;2023-06-22T03:43:38;19.30;;;12.32;;
22606;SDS011;11470;20.968;105.834;2023-06-22T03:53:48;21.00;;;13.00;;
22606;SDS011;11470;20.968;105.834;2023-06-22T03:58:54;17.55;;;10.82;;
22606;SDS011;11470;20.968;105.834;2023-06-22T04:04:00;17.95;;;11.45;;
22606;SDS011;11470;20.968;105.834;2023-06-22T04:09:08;16.75;;;11.38;;
22606;SDS011;11470;20.968;105.834;2023-06-22T04:14:13;17.88;;;11.13;;
22606;SDS011;11470;20.968;105.834;2023-06-22T04:19:18;18.17;;;10.27;;
22606;SDS011;11470;20.968;105.834;2023-06-22T04:24:24;18.25;;;11.10;;
22606;SDS011;11470;20.968;105.834;2023-06-22T04:29:29;17.00;;;11.00;;
22606;SDS011;11470;20.968;105.834;2023-06-22T04:34:34;17.15;;;10.10;;
22606;SDS011;11470;20.968;105.834;2023-06-22T04:39:39;15.43;;;10.80;;
22606;SDS011;11470;20.968;105.834;2023-06-22T04:44:44;16.48;;;10.70;;
22606;SDS011;11470;20.968;105.834;2023-06-22T04:49:49;15.90;;;11.10;;
22606;SDS011;11470;20.968;105.834;2023-06-22T04:54:54;17.92;;;10.65;;
22606;SDS011;11470;20.968;105.834;2023-06-22T05:00:01;15.60;;;10.18;;
22606;SDS011;11470;20.968;105.834;2023-06-22T05:05:16;14.32;;;9.80;;
22606;SDS011;11470;20.968;105.834;2023-06-22T05:10:21;15.70;;;10.90;;
22606;SDS011;11470;20.968;105.834;2023-06-22T05:15:27;18.95;;;10.65;;
22606;SDS011;11470;20.968;105.834;2023-06-22T05:20:33;16.30;;;9.68;;
22606;SDS011;11470;20.968;105.834;2023-06-22T05:25:39;17.67;;;10.85;;
22606;SDS011;11470;20.968;105.834;2023-06-22T05:30:44;18.00;;;10.35;;
22606;SDS011;11470;20.968;105.834;2023-06-22T05:35:51;20.35;;;10.57;;
22606;SDS011;11470;20.968;105.834;2023-06-22T05:40:55;16.00;;;10.20;;
22606;SDS011;11470;20.968;105.834;2023-06-22T05:51:05;15.82;;;9.70;;
22606;SDS011;11470;20.968;105.834;2023-06-22T05:56:11;15.95;;;10.43;;
22606;SDS011;11470;20.968;105.834;2023-06-22T06:06:21;18.20;;;9.07;;
22606;SDS011;11470;20.968;105.834;2023-06-22T06:11:31;13.27;;;9.25;;
22606;SDS011;11470;20.968;105.834;2023-06-22T06:16:37;16.35;;;10.40;;
22606;SDS011;11470;20.968;105.834;2023-06-22T06:21:42;15.82;;;8.75;;
22606;SDS011;11470;20.968;105.834;2023-06-22T06:26:48;11.13;;;8.45;;
22606;SDS011;11470;20.968;105.834;2023-06-22T06:31:53;14.90;;;8.77;;
22606;SDS011;11470;20.968;105.834;2023-06-22T06:36:59;15.35;;;8.50;;
22606;SDS011;11470;20.968;105.834;2023-06-22T06:42:04;12.57;;;7.93;;
22606;SDS011;11470;20.968;105.834;2023-06-22T06:47:10;13.75;;;8.88;;
22606;SDS011;11470;20.968;105.834;2023-06-22T06:57:20;10.77;;;8.00;;
22606;SDS011;11470;20.968;105.834;2023-06-22T07:02:26;9.40;;;7.47;;
22606;SDS011;11470;20.968;105.834;2023-06-22T07:07:34;12.10;;;7.78;;
22606;SDS011;11470;20.968;105.834;2023-06-22T07:12:40;8.45;;;5.82;;
22606;SDS011;11470;20.968;105.834;2023-06-22T07:17:45;13.13;;;8.23;;
22606;SDS011;11470;20.968;105.834;2023-06-22T07:28:00;11.77;;;7.90;;
22606;SDS011;11470;20.968;105.834;2023-06-22T07:33:07;12.15;;;7.18;;
22606;SDS011;11470;20.968;105.834;2023-06-22T07:38:16;11.23;;;7.22;;
22606;SDS011;11470;20.968;105.834;2023-06-22T07:43:21;12.40;;;7.20;;
22606;SDS011;11470;20.968;105.834;2023-06-22T07:48:26;9.48;;;7.32;;
22606;SDS011;11470;20.968;105.834;2023-06-22T07:58:36;8.75;;;7.03;;
22606;SDS011;11470;20.968;105.834;2023-06-22T08:03:42;9.75;;;6.85;;
22606;SDS011;11470;20.968;105.834;2023-06-22T08:08:47;8.27;;;6.50;;
22606;SDS011;11470;20.968;105.834;2023-06-22T08:13:52;8.52;;;6.70;;
22606;SDS011;11470;20.968;105.834;2023-06-22T08:18:59;13.32;;;7.18;;
22606;SDS011;11470;20.968;105.834;2023-06-22T08:24:04;8.47;;;6.33;;
22606;SDS011;11470;20.968;105.834;2023-06-22T08:29:10;8.82;;;6.55;;
22606;SDS011;11470;20.968;105.834;2023-06-22T08:34:16;8.95;;;6.65;;
22606;SDS011;11470;20.968;105.834;2023-06-22T08:39:24;10.65;;;6.60;;
22606;SDS011;11470;20.968;105.834;2023-06-22T08:44:31;10.77;;;6.93;;
22606;SDS011;11470;20.968;105.834;2023-06-22T08:49:36;11.43;;;7.15;;
22606;SDS011;11470;20.968;105.834;2023-06-22T08:54:42;11.57;;;6.85;;
22606;SDS011;11470;20.968;105.834;2023-06-22T08:59:46;8.02;;;6.45;;
22606;SDS011;11470;20.968;105.834;2023-06-22T09:04:52;11.97;;;5.83;;
22606;SDS011;11470;20.968;105.834;2023-06-22T09:09:59;9.30;;;6.20;;
22606;SDS011;11470;20.968;105.834;2023-06-22T09:15:06;10.88;;;7.25;;
22606;SDS011;11470;20.968;105.834;2023-06-22T09:20:28;9.57;;;6.45;;
22606;SDS011;11470;20.968;105.834;2023-06-22T09:25:34;11.02;;;7.25;;
22606;SDS011;11470;20.968;105.834;2023-06-22T09:35:43;12.60;;;6.80;;
22606;SDS011;11470;20.968;105.834;2023-06-22T09:45:53;9.70;;;6.22;;
22606;SDS011;11470;20.968;105.834;2023-06-22T09:50:58;9.70;;;6.63;;
22606;SDS011;11470;20.968;105.834;2023-06-22T09:56:03;10.70;;;6.75;;
22606;SDS011;11470;20.968;105.834;2023-06-22T10:01:09;12.18;;;6.72;;
22606;SDS011;11470;20.968;105.834;2023-06-22T10:06:15;7.88;;;5.82;;
22606;SDS011;11470;20.968;105.834;2023-06-22T10:11:20;14.45;;;6.10;;
22606;SDS011;11470;20.968;105.834;2023-06-22T10:16:31;12.88;;;5.97;;
22606;SDS011;11470;20.968;105.834;2023-06-22T10:21:36;12.00;;;7.72;;
22606;SDS011;11470;20.968;105.834;2023-06-22T10:26:41;11.23;;;6.30;;
22606;SDS011;11470;20.968;105.834;2023-06-22T10:36:51;8.35;;;7.10;;
22606;SDS011;11470;20.968;105.834;2023-06-22T10:41:59;13.65;;;8.27;;
22606;SDS011;11470;20.968;105.834;2023-06-22T10:47:08;18.02;;;12.65;;
22606;SDS011;11470;20.968;105.834;2023-06-22T10:52:14;15.98;;;10.32;;
22606;SDS011;11470;20.968;105.834;2023-06-22T10:57:19;17.85;;;9.60;;
22606;SDS011;11470;20.968;105.834;2023-06-22T11:02:25;16.83;;;8.40;;
22606;SDS011;11470;20.968;105.834;2023-06-22T11:07:31;11.65;;;7.40;;
22606;SDS011;11470;20.968;105.834;2023-06-22T11:12:37;12.20;;;7.60;;
22606;SDS011;11470;20.968;105.834;2023-06-22T11:17:42;9.95;;;7.70;;
22606;SDS011;11470;20.968;105.834;2023-06-22T11:27:51;16.02;;;9.20;;
22606;SDS011;11470;20.968;105.834;2023-06-22T11:32:58;17.58;;;9.43;;
22606;SDS011;11470;20.968;105.834;2023-06-22T11:38:03;17.02;;;10.45;;
22606;SDS011;11470;20.968;105.834;2023-06-22T11:43:08;16.73;;;10.02;;
22606;SDS011;11470;20.968;105.834;2023-06-22T11:48:13;17.75;;;9.90;;
22606;SDS011;11470;20.968;105.834;2023-06-22T11:53:20;16.77;;;8.90;;
22606;SDS011;11470;20.968;105.834;2023-06-22T11:58:25;12.82;;;7.45;;
22606;SDS011;11470;20.968;105.834;2023-06-22T12:03:31;13.80;;;7.80;;
22606;SDS011;11470;20.968;105.834;2023-06-22T12:08:37;16.85;;;9.35;;
22606;SDS011;11470;20.968;105.834;2023-06-22T12:13:43;19.10;;;8.88;;
22606;SDS011;11470;20.968;105.834;2023-06-22T12:18:47;14.82;;;9.30;;
22606;SDS011;11470;20.968;105.834;2023-06-22T12:23:53;24.90;;;11.35;;
22606;SDS011;11470;20.968;105.834;2023-06-22T12:28:58;11.85;;;8.68;;
22606;SDS011;11470;20.968;105.834;2023-06-22T12:34:03;21.23;;;10.88;;
22606;SDS011;11470;20.968;105.834;2023-06-22T12:39:08;19.80;;;10.70;;
22606;SDS011;11470;20.968;105.834;2023-06-22T12:49:18;19.55;;;11.70;;
22606;SDS011;11470;20.968;105.834;2023-06-22T12:54:24;17.30;;;9.95;;
22606;SDS011;11470;20.968;105.834;2023-06-22T12:59:29;28.25;;;13.60;;
22606;SDS011;11470;20.968;105.834;2023-06-22T13:04:34;25.23;;;13.23;;
22606;SDS011;11470;20.968;105.834;2023-06-22T13:09:39;19.40;;;12.25;;
22606;SDS011;11470;20.968;105.834;2023-06-22T13:14:44;30.33;;;14.52;;
22606;SDS011;11470;20.968;105.834;2023-06-22T13:19:50;27.65;;;13.82;;
22606;SDS011;11470;20.968;105.834;2023-06-22T13:24:56;31.27;;;14.55;;
22606;SDS011;11470;20.968;105.834;2023-06-22T13:30:01;26.08;;;13.60;;
22606;SDS011;11470;20.968;105.834;2023-06-22T13:35:07;25.92;;;13.82;;
22606;SDS011;11470;20.968;105.834;2023-06-22T13:40:13;19.08;;;11.93;;
22606;SDS011;11470;20.968;105.834;2023-06-22T13:45:18;19.35;;;12.77;;
22606;SDS011;11470;20.968;105.834;2023-06-22T13:50:24;29.63;;;17.23;;
22606;SDS011;11470;20.968;105.834;2023-06-22T13:55:29;29.75;;;16.70;;
22606;SDS011;11470;20.968;105.834;2023-06-22T14:00:34;39.90;;;23.85;;
22606;SDS011;11470;20.968;105.834;2023-06-22T14:10:45;31.47;;;18.80;;
22606;SDS011;11470;20.968;105.834;2023-06-22T14:15:50;37.60;;;20.10;;
22606;SDS011;11470;20.968;105.834;2023-06-22T14:20:57;32.45;;;18.67;;
22606;SDS011;11470;20.968;105.834;2023-06-22T14:26:02;26.45;;;17.08;;
22606;SDS011;11470;20.968;105.834;2023-06-22T14:31:07;21.45;;;14.48;;
22606;SDS011;11470;20.968;105.834;2023-06-22T14:41:19;30.20;;;18.60;;
22606;SDS011;11470;20.968;105.834;2023-06-22T14:46:25;27.02;;;18.20;;
22606;SDS011;11470;20.968;105.834;2023-06-22T14:51:31;28.17;;;16.55;;
22606;SDS011;11470;20.968;105.834;2023-06-22T14:56:36;26.45;;;16.77;;
22606;SDS011;11470;20.968;105.834;2023-06-22T15:06:49;26.13;;;13.15;;
22606;SDS011;11470;20.968;105.834;2023-06-22T15:16:59;13.55;;;8.52;;
22606;SDS011;11470;20.968;105.834;2023-06-22T15:22:07;15.73;;;10.77;;
22606;SDS011;11470;20.968;105.834;2023-06-22T15:27:12;19.20;;;10.73;;
22606;SDS011;11470;20.968;105.834;2023-06-22T15:32:20;23.33;;;11.70;;
22606;SDS011;11470;20.968;105.834;2023-06-22T15:42:30;17.13;;;8.65;;
22606;SDS011;11470;20.968;105.834;2023-06-22T15:47:35;25.33;;;10.73;;
22606;SDS011;11470;20.968;105.834;2023-06-22T15:57:45;18.38;;;6.10;;
22606;SDS011;11470;20.968;105.834;2023-06-22T16:08:07;7.63;;;3.45;;
22606;SDS011;11470;20.968;105.834;2023-06-22T16:13:16;12.43;;;2.85;;
22606;SDS011;11470;20.968;105.834;2023-06-22T16:18:21;7.50;;;2.33;;
22606;SDS011;11470;20.968;105.834;2023-06-22T16:28:32;12.32;;;1.75;;
22606;SDS011;11470;20.968;105.834;2023-06-22T16:33:37;9.10;;;2.67;;
22606;SDS011;11470;20.968;105.834;2023-06-22T16:38:42;6.25;;;3.03;;
22606;SDS011;11470;20.968;105.834;2023-06-22T16:43:54;5.82;;;2.15;;
22606;SDS011;11470;20.968;105.834;2023-06-22T16:48:59;3.90;;;2.70;;
22606;SDS011;11470;20.968;105.834;2023-06-22T16:54:04;5.07;;;2.33;;
22606;SDS011;11470;20.968;105.834;2023-06-22T16:59:10;4.68;;;2.33;;
22606;SDS011;11470;20.968;105.834;2023-06-22T17:09:23;7.13;;;2.30;;
22606;SDS011;11470;20.968;105.834;2023-06-22T17:14:31;5.88;;;1.88;;
22606;SDS011;11470;20.968;105.834;2023-06-22T17:19:35;4.07;;;2.00;;
22606;SDS011;11470;20.968;105.834;2023-06-22T17:24:41;3.13;;;1.90;;
22606;SDS011;11470;20.968;105.834;2023-06-22T17:29:47;4.07;;;2.40;;
22606;SDS011;11470;20.968;105.834;2023-06-22T17:35:08;3.63;;;2.20;;
22606;SDS011;11470;20.968;105.834;2023-06-22T17:40:15;6.63;;;2.28;;
22606;SDS011;11470;20.968;105.834;2023-06-22T17:45:22;3.00;;;1.65;;
22606;SDS011;11470;20.968;105.834;2023-06-22T17:50:27;4.95;;;2.65;;
22606;SDS011;11470;20.968;105.834;2023-06-22T17:55:33;6.25;;;2.78;;
22606;SDS011;11470;20.968;105.834;2023-06-22T18:00:40;9.40;;;3.03;;
22606;SDS011;11470;20.968;105.834;2023-06-22T18:05:48;3.85;;;1.58;;
22606;SDS011;11470;20.968;105.834;2023-06-22T18:10:53;4.38;;;2.40;;
22606;SDS011;11470;20.968;105.834;2023-06-22T18:16:03;4.75;;;2.78;;
22606;SDS011;11470;20.968;105.834;2023-06-22T18:21:12;3.97;;;2.40;;
22606;SDS011;11470;20.968;105.834;2023-06-22T18:26:25;7.13;;;3.13;;
22606;SDS011;11470;20.968;105.834;2023-06-22T18:31:30;6.13;;;3.35;;
22606;SDS011;11470;20.968;105.834;2023-06-22T18:36:57;8.10;;;3.60;;
22606;SDS011;11470;20.968;105.834;2023-06-22T18:42:03;12.03;;;4.70;;
22606;SDS011;11470;20.968;105.834;2023-06-22T18:47:13;14.48;;;5.53;;
22606;SDS011;11470;20.968;105.834;2023-06-22T18:52:28;20.42;;;8.65;;
22606;SDS011;11470;20.968;105.834;2023-06-22T18:57:35;18.08;;;6.85;;
22606;SDS011;11470;20.968;105.834;2023-06-22T19:02:44;20.20;;;7.32;;
22606;SDS011;11470;20.968;105.834;2023-06-22T19:13:16;15.73;;;6.18;;
22606;SDS011;11470;20.968;105.834;2023-06-22T19:18:23;12.57;;;5.50;;
22606;SDS011;11470;20.968;105.834;2023-06-22T19:23:35;10.93;;;5.57;;
22606;SDS011;11470;20.968;105.834;2023-06-22T19:28:45;11.32;;;5.60;;
22606;SDS011;11470;20.968;105.834;2023-06-22T19:34:03;11.20;;;5.25;;
22606;SDS011;11470;20.968;105.834;2023-06-22T19:39:08;11.30;;;5.13;;
22606;SDS011;11470;20.968;105.834;2023-06-22T19:44:15;8.93;;;5.05;;
22606;SDS011;11470;20.968;105.834;2023-06-22T19:49:20;9.85;;;5.35;;
22606;SDS011;11470;20.968;105.834;2023-06-22T19:54:25;10.02;;;5.75;;
22606;SDS011;11470;20.968;105.834;2023-06-22T19:59:29;9.57;;;4.50;;
22606;SDS011;11470;20.968;105.834;2023-06-22T20:04:37;7.07;;;4.68;;
22606;SDS011;11470;20.968;105.834;2023-06-22T20:09:43;8.45;;;4.63;;
22606;SDS011;11470;20.968;105.834;2023-06-22T20:14:49;5.80;;;3.28;;
22606;SDS011;11470;20.968;105.834;2023-06-22T20:19:54;7.30;;;3.60;;
22606;SDS011;11470;20.968;105.834;2023-06-22T20:24:58;5.53;;;3.38;;
22606;SDS011;11470;20.968;105.834;2023-06-22T20:30:21;6.20;;;3.17;;
22606;SDS011;11470;20.968;105.834;2023-06-22T20:35:28;6.40;;;3.47;;
22606;SDS011;11470;20.968;105.834;2023-06-22T20:40:33;5.70;;;2.95;;
22606;SDS011;11470;20.968;105.834;2023-06-22T20:45:38;6.97;;;3.33;;
22606;SDS011;11470;20.968;105.834;2023-06-22T20:50:43;6.97;;;3.80;;
22606;SDS011;11470;20.968;105.834;2023-06-22T20:55:48;6.60;;;4.25;;
22606;SDS011;11470;20.968;105.834;2023-06-22T21:00:54;6.72;;;4.95;;
22606;SDS011;11470;20.968;105.834;2023-06-22T21:06:03;7.18;;;4.55;;
22606;SDS011;11470;20.968;105.834;2023-06-22T21:11:08;13.32;;;4.95;;
22606;SDS011;11470;20.968;105.834;2023-06-22T21:16:13;8.18;;;4.88;;
22606;SDS011;11470;20.968;105.834;2023-06-22T21:21:19;10.73;;;4.25;;
22606;SDS011;11470;20.968;105.834;2023-06-22T21:26:24;8.90;;;4.03;;
22606;SDS011;11470;20.968;105.834;2023-06-22T21:31:29;9.38;;;5.13;;
22606;SDS011;11470;20.968;105.834;2023-06-22T21:36:35;11.00;;;4.75;;
22606;SDS011;11470;20.968;105.834;2023-06-22T21:41:40;11.77;;;4.22;;
22606;SDS011;11470;20.968;105.834;2023-06-22T21:46:45;9.23;;;4.60;;
22606;SDS011;11470;20.968;105.834;2023-06-22T21:51:50;10.27;;;6.07;;
22606;SDS011;11470;20.968;105.834;2023-06-22T21:56:55;17.73;;;7.07;;
22606;SDS011;11470;20.968;105.834;2023-06-22T22:02:00;15.30;;;6.70;;
22606;SDS011;11470;20.968;105.834;2023-06-22T22:07:05;8.70;;;3.67;;
22606;SDS011;11470;20.968;105.834;2023-06-22T22:12:13;10.20;;;3.60;;
22606;SDS011;11470;20.968;105.834;2023-06-22T22:17:18;15.23;;;7.32;;
22606;SDS011;11470;20.968;105.834;2023-06-22T22:22:23;16.60;;;6.57;;
22606;SDS011;11470;20.968;105.834;2023-06-22T22:27:28;10.80;;;6.05;;
22606;SDS011;11470;20.968;105.834;2023-06-22T22:32:33;8.63;;;5.10;;
22606;SDS011;11470;20.968;105.834;2023-06-22T22:37:38;10.73;;;5.22;;
22606;SDS011;11470;20.968;105.834;2023-06-22T22:42:46;10.32;;;5.68;;
22606;SDS011;11470;20.968;105.834;2023-06-22T22:47:51;12.93;;;6.90;;
22606;SDS011;11470;20.968;105.834;2023-06-22T22:52:56;11.10;;;5.70;;
22606;SDS011;11470;20.968;105.834;2023-06-22T22:58:01;13.05;;;6.38;;
22606;SDS011;11470;20.968;105.834;2023-06-22T23:03:07;11.80;;;6.57;;
22606;SDS011;11470;20.968;105.834;2023-06-22T23:08:11;11.98;;;5.80;;
22606;SDS011;11470;20.968;105.834;2023-06-22T23:13:17;9.35;;;5.68;;
22606;SDS011;11470;20.968;105.834;2023-06-22T23:18:21;10.07;;;5.57;;
22606;SDS011;11470;20.968;105.834;2023-06-22T23:23:27;11.00;;;5.83;;
22606;SDS011;11470;20.968;105.834;2023-06-22T23:28:31;6.85;;;4.75;;
22606;SDS011;11470;20.968;105.834;2023-06-22T23:33:39;9.35;;;4.60;;
22606;SDS011;11470;20.968;105.834;2023-06-22T23:38:44;10.00;;;4.68;;
22606;SDS011;11470;20.968;105.834;2023-06-22T23:43:49;8.18;;;4.68;;
22606;SDS011;11470;20.968;105.834;2023-06-22T23:48:56;6.18;;;3.53;;
22606;SDS011;11470;20.968;105.834;2023-06-22T23:54:02;6.63;;;3.33;;
22606;SDS011;11470;20.968;105.834;2023-06-22T23:59:06;6.18;;;3.30;;
